Strona główna
METAR-TAF:

METAR-TAF

Lotnisko :

Port lotniczy Honningsvåg

Honningsvåg, Norwegia

Szerokość geograficzna: 71-01N, Długość geograficzna: 025-59E, wysokość: 1 m

Aktualna obserwacja pogody

Raport powstał 18 minut temu, godzina 08:50 UTC
Wiatr 14 kt od południowo-południowy zachód
Temperatura -5°C
Wilgotność 93%
Ciśnienie 989 hPa
Widzialność: 1000 m
śnieg

METAR: ENHV 250850Z 20014KT 1000 SN VV007 M05/M06 Q0989

czas: 10:08 (09:08 UTC)


TAF: brakujący

Obserwacja i prognoza pogody dla ponad 4000 lotnisk (raport METAR i TAF).

Dostępne stacje oznaczono żółtymi i czerwonymi punktami na mapie.

Najedź kursorem aby zobaczyć nazwę stacji.

Kliknij aby zobaczyć obserwacje i prognozy pogody.

Aby zmienić mapę: kliknij na zielony przycisk z czarnym krzyżykiem, aby powiększyć; na zielony przycisk z myślnikiem, aby pomniejszyć; na zielone strzałki, aby przejść do map sąsiednich.


METAR-TAF: